createdAt,value
2022-11-16T00:01:46.770Z,43.15
2022-11-16T00:04:14.134Z,33.73
2022-11-16T00:06:42.139Z,40.92
2022-11-16T00:09:24.001Z,41.35
2022-11-16T00:11:54.057Z,36.70
2022-11-16T00:14:22.889Z,37.67
2022-11-16T00:16:51.658Z,46.20
2022-11-16T00:19:20.710Z,41.25
2022-11-16T00:21:48.362Z,43.03
2022-11-16T00:24:17.552Z,42.10
2022-11-16T00:26:46.116Z,39.80
2022-11-16T00:29:20.024Z,37.37
2022-11-16T00:31:48.614Z,41.88
2022-11-16T00:34:16.549Z,41.55
2022-11-16T00:36:44.968Z,36.05
2022-11-16T00:39:13.311Z,40.38
2022-11-16T00:41:41.933Z,43.70
2022-11-16T00:44:10.029Z,48.45
2022-11-16T00:46:38.098Z,49.35
2022-11-16T00:49:06.002Z,50.95
2022-11-16T00:51:34.771Z,46.40
2022-11-16T00:54:03.625Z,44.33
2022-11-16T00:56:33.611Z,46.20
2022-11-16T00:59:01.383Z,45.85
2022-11-16T01:01:29.002Z,42.72
2022-11-16T01:03:56.558Z,40.30
2022-11-16T01:06:23.949Z,42.67
2022-11-16T01:08:52.120Z,48.63
2022-11-16T01:11:37.925Z,51.53
2022-11-16T01:14:07.667Z,51.65
2022-11-16T01:16:36.213Z,46.47
2022-11-16T01:19:04.189Z,47.97
2022-11-16T01:21:31.537Z,48.35
2022-11-16T01:23:58.828Z,47.75
2022-11-16T01:26:26.467Z,53.30
2022-11-16T01:28:53.994Z,54.88
2022-11-16T01:31:21.425Z,47.43
2022-11-16T01:33:51.537Z,48.45
2022-11-16T01:36:23.171Z,50.72
2022-11-16T01:38:50.986Z,59.92
2022-11-16T01:41:25.571Z,46.35
2022-11-16T01:43:59.550Z,47.00
2022-11-16T01:46:32.539Z,49.60
2022-11-16T01:49:10.616Z,58.50
2022-11-16T01:51:40.091Z,47.20
2022-11-16T01:54:10.342Z,49.25
2022-11-16T01:56:42.657Z,52.67
2022-11-16T01:59:15.613Z,50.10
2022-11-16T02:01:43.239Z,47.17
2022-11-16T02:04:12.417Z,50.80
2022-11-16T02:06:55.150Z,48.17
2022-11-16T02:10:01.121Z,48.27
2022-11-16T02:13:00.079Z,47.80
2022-11-16T02:15:50.783Z,53.40
2022-11-16T02:18:55.307Z,44.05
2022-11-16T02:21:59.213Z,47.47
2022-11-16T02:24:59.343Z,53.50
2022-11-16T02:27:50.406Z,50.90
2022-11-16T02:30:19.140Z,48.83
2022-11-16T02:32:57.288Z,44.78
2022-11-16T02:35:29.251Z,46.60
2022-11-16T02:38:07.458Z,44.97
2022-11-16T02:40:37.902Z,46.35
2022-11-16T02:43:10.404Z,46.10
2022-11-16T02:45:43.736Z,49.90
2022-11-16T02:48:15.692Z,45.35
2022-11-16T02:50:44.359Z,43.07
2022-11-16T02:53:11.842Z,44.95
2022-11-16T02:55:40.029Z,46.03
2022-11-16T02:58:11.902Z,45.55
2022-11-16T03:01:07.279Z,49.72
2022-11-16T03:03:51.075Z,47.83
2022-11-16T03:06:30.377Z,58.20
2022-11-16T03:09:03.891Z,45.20
2022-11-16T03:11:53.583Z,49.78
2022-11-16T03:14:24.139Z,42.15
2022-11-16T03:16:58.990Z,45.80
2022-11-16T03:19:44.461Z,42.03
2022-11-16T03:22:15.748Z,49.72
2022-11-16T03:24:44.380Z,46.10
2022-11-16T03:27:38.627Z,44.42
2022-11-16T03:30:23.780Z,46.00
2022-11-16T03:33:04.445Z,47.60
2022-11-16T03:36:01.183Z,48.97
2022-11-16T03:38:34.507Z,52.17
2022-11-16T03:41:06.759Z,53.47
2022-11-16T03:43:35.454Z,54.47
2022-11-16T03:46:05.074Z,44.67
2022-11-16T03:48:36.677Z,44.65
2022-11-16T03:51:11.468Z,45.58
2022-11-16T03:53:40.588Z,43.10
2022-11-16T03:56:09.737Z,47.37
2022-11-16T03:58:38.821Z,43.83
2022-11-16T04:01:06.874Z,43.10
2022-11-16T04:03:34.339Z,40.88
2022-11-16T04:06:20.261Z,41.10
2022-11-16T04:09:08.633Z,37.97
2022-11-16T04:11:57.626Z,34.63
2022-11-16T04:14:44.344Z,40.47
2022-11-16T04:17:35.615Z,31.58
2022-11-16T04:20:23.662Z,31.50
2022-11-16T04:23:15.193Z,31.63
2022-11-16T04:25:44.067Z,30.23
2022-11-16T04:28:17.940Z,27.08
2022-11-16T04:31:24.810Z,38.40
2022-11-16T04:34:18.506Z,33.88
2022-11-16T04:37:09.725Z,32.33
2022-11-16T04:39:37.551Z,30.23
2022-11-16T04:42:15.042Z,28.90
2022-11-16T04:45:02.511Z,31.05
2022-11-16T04:47:36.680Z,31.85
2022-11-16T04:50:04.701Z,32.77
2022-11-16T04:52:32.508Z,28.70
2022-11-16T04:54:59.989Z,22.33
2022-11-16T04:57:28.644Z,24.50
2022-11-16T04:59:57.027Z,25.90
2022-11-16T05:02:24.938Z,21.60
2022-11-16T05:04:56.798Z,26.13
2022-11-16T05:07:25.427Z,18.75
2022-11-16T05:09:59.523Z,22.25
2022-11-16T05:12:28.705Z,21.60
2022-11-16T05:14:59.969Z,20.83
2022-11-16T05:17:30.796Z,23.13
2022-11-16T05:20:19.318Z,25.05
2022-11-16T05:22:57.407Z,20.77
2022-11-16T05:25:32.493Z,21.67
2022-11-16T05:28:04.761Z,20.40
2022-11-16T05:30:34.620Z,23.38
2022-11-16T05:33:03.988Z,27.75
2022-11-16T05:35:34.838Z,59.38
2022-11-16T05:38:02.513Z,66.20
2022-11-16T05:40:33.180Z,61.57
2022-11-16T05:43:01.742Z,58.08
2022-11-16T05:45:33.439Z,50.80
2022-11-16T05:48:02.194Z,41.70
2022-11-16T05:50:30.656Z,35.47
2022-11-16T05:53:06.901Z,35.13
2022-11-16T05:55:36.364Z,31.55
2022-11-16T05:58:03.807Z,25.90
2022-11-16T06:00:31.319Z,26.42
2022-11-16T06:03:01.158Z,24.10
2022-11-16T06:05:35.113Z,25.33
2022-11-16T06:08:06.375Z,22.38
2022-11-16T06:10:33.796Z,23.92
2022-11-16T06:13:01.109Z,25.90
2022-11-16T06:15:28.787Z,21.00
2022-11-16T06:17:56.169Z,22.33
2022-11-16T06:20:23.504Z,23.13
2022-11-16T06:22:53.627Z,22.92
2022-11-16T06:25:21.948Z,25.05
2022-11-16T06:27:49.351Z,23.35
2022-11-16T06:30:18.776Z,22.27
2022-11-16T06:32:46.179Z,24.98
2022-11-16T06:35:13.540Z,28.00
2022-11-16T06:37:40.950Z,23.35
2022-11-16T06:40:10.065Z,23.13
2022-11-16T06:42:42.123Z,22.67
2022-11-16T06:45:11.876Z,24.17
2022-11-16T06:47:43.236Z,23.08
2022-11-16T06:50:10.944Z,25.13
2022-11-16T06:52:39.144Z,23.08
2022-11-16T06:55:08.273Z,24.63
2022-11-16T06:57:37.859Z,23.70
2022-11-16T07:00:07.338Z,24.38
2022-11-16T07:02:40.695Z,25.90
2022-11-16T07:05:12.525Z,23.52
2022-11-16T07:07:41.147Z,20.63
2022-11-16T07:10:09.179Z,19.83
2022-11-16T07:12:37.124Z,19.13
2022-11-16T07:15:06.594Z,18.73
2022-11-16T07:17:37.720Z,20.50
2022-11-16T07:20:05.700Z,17.27
2022-11-16T07:22:33.821Z,19.48
2022-11-16T07:25:01.274Z,19.40
2022-11-16T07:27:28.998Z,17.63
2022-11-16T07:29:56.781Z,16.05
2022-11-16T07:32:50.919Z,17.33
2022-11-16T07:35:43.990Z,20.55
2022-11-16T07:38:15.407Z,20.42
2022-11-16T07:40:46.810Z,16.85
2022-11-16T07:43:17.371Z,21.17
2022-11-16T07:46:44.732Z,19.77
2022-11-16T07:48:55.138Z,19.02
2022-11-16T07:51:41.232Z,19.83
2022-11-16T07:54:20.888Z,20.08
2022-11-16T07:56:48.286Z,20.58
2022-11-16T07:59:15.802Z,17.90
2022-11-16T08:01:48.032Z,20.88
2022-11-16T08:04:17.912Z,18.92
2022-11-16T08:06:47.137Z,17.52
2022-11-16T08:09:14.835Z,20.25
2022-11-16T08:11:43.383Z,18.73
2022-11-16T08:14:12.236Z,20.30
2022-11-16T08:16:40.014Z,18.70
2022-11-16T08:19:12.904Z,21.30
2022-11-16T08:21:40.507Z,19.50
2022-11-16T08:24:08.462Z,17.63
2022-11-16T08:26:39.417Z,23.55
2022-11-16T08:29:11.881Z,21.58
2022-11-16T08:31:44.493Z,24.13
2022-11-16T08:34:14.539Z,21.42
2022-11-16T08:36:46.054Z,24.60
2022-11-16T08:39:13.780Z,18.27
2022-11-16T08:41:42.583Z,18.85
2022-11-16T08:44:11.672Z,19.38
2022-11-16T08:46:43.841Z,20.67
2022-11-16T08:49:20.929Z,19.83
2022-11-16T08:51:50.126Z,20.58
2022-11-16T08:54:18.980Z,17.90
2022-11-16T08:56:46.631Z,20.63
2022-11-16T08:59:14.583Z,17.73
2022-11-16T09:01:47.890Z,19.70
2022-11-16T09:04:15.267Z,20.45
2022-11-16T09:06:42.642Z,16.98
2022-11-16T09:09:10.576Z,16.77
2022-11-16T09:11:38.016Z,19.48
2022-11-16T09:14:05.440Z,17.63
2022-11-16T09:16:32.884Z,20.25
2022-11-16T09:19:01.514Z,18.08
2022-11-16T09:21:38.651Z,19.35
2022-11-16T09:24:06.207Z,18.47
2022-11-16T09:26:33.732Z,19.52
2022-11-16T09:29:01.576Z,18.27
2022-11-16T09:31:31.428Z,16.58
2022-11-16T09:33:59.321Z,16.60
2022-11-16T09:36:29.160Z,19.80
2022-11-16T09:42:04.071Z,17.67
2022-11-16T09:45:04.931Z,22.85
2022-11-16T09:47:40.767Z,19.48
2022-11-16T09:50:31.467Z,17.60
2022-11-16T09:53:23.264Z,20.30
2022-11-16T09:55:56.904Z,20.02
2022-11-16T09:58:37.469Z,17.20
2022-11-16T10:01:20.400Z,16.90
2022-11-16T10:03:50.960Z,19.10
2022-11-16T10:06:23.099Z,18.48
2022-11-16T10:08:57.121Z,18.77
2022-11-16T10:11:53.581Z,19.20
2022-11-16T10:15:05.307Z,18.10
2022-11-16T10:17:39.517Z,16.33
2022-11-16T10:20:17.260Z,16.50
2022-11-16T10:22:54.555Z,15.20
2022-11-16T10:25:25.227Z,19.42
2022-11-16T10:28:16.003Z,18.90
2022-11-16T10:31:00.394Z,19.47
2022-11-16T10:33:35.959Z,14.15
2022-11-16T10:36:10.258Z,19.23
2022-11-16T10:38:38.369Z,15.32
2022-11-16T10:41:44.884Z,17.20
2022-11-16T10:44:27.831Z,15.77
2022-11-16T10:47:50.747Z,16.27
2022-11-16T10:50:35.551Z,17.00
2022-11-16T10:53:02.886Z,18.23
2022-11-16T10:55:30.361Z,19.70
2022-11-16T10:58:06.026Z,19.30
2022-11-16T11:00:49.389Z,21.88
2022-11-16T11:03:31.655Z,20.17
2022-11-16T11:05:59.309Z,25.92
2022-11-16T11:08:30.816Z,22.55
2022-11-16T11:11:25.102Z,23.40
2022-11-16T11:14:22.056Z,19.85
2022-11-16T11:16:53.818Z,22.88
2022-11-16T11:19:28.430Z,23.13
2022-11-16T11:21:58.314Z,25.73
2022-11-16T11:24:43.756Z,22.57
2022-11-16T11:27:12.121Z,20.63
2022-11-16T11:29:42.959Z,24.40
2022-11-16T11:32:23.941Z,20.02
2022-11-16T11:34:55.286Z,19.60
2022-11-16T11:37:30.860Z,22.77
2022-11-16T11:40:10.260Z,24.23
2022-11-16T11:42:51.348Z,22.73
2022-11-16T11:45:21.488Z,17.83
2022-11-16T11:48:17.786Z,19.52
2022-11-16T11:50:53.596Z,20.47
2022-11-16T11:53:33.176Z,18.38
2022-11-16T11:56:01.027Z,19.08
2022-11-16T11:58:35.902Z,18.63
2022-11-16T12:01:48.627Z,17.77
2022-11-16T12:04:45.858Z,19.67
2022-11-16T12:07:43.920Z,17.70
2022-11-16T12:10:29.455Z,23.35
2022-11-16T12:13:37.102Z,34.85
2022-11-16T12:16:10.650Z,21.92
2022-11-16T12:18:48.306Z,26.40
2022-11-16T12:21:23.272Z,20.60
2022-11-16T12:24:21.733Z,20.52
2022-11-16T12:27:16.713Z,18.58
2022-11-16T12:30:10.087Z,27.13
2022-11-16T12:32:57.677Z,22.67
2022-11-16T12:35:55.281Z,19.52
2022-11-16T12:38:47.801Z,18.27
2022-11-16T12:41:33.288Z,18.15
2022-11-16T12:44:04.675Z,21.30
2022-11-16T12:46:31.969Z,21.30
2022-11-16T12:49:24.469Z,21.27
2022-11-16T12:52:10.115Z,22.52
2022-11-16T12:58:10.822Z,28.20
2022-11-16T13:00:59.882Z,59.63
2022-11-16T13:03:44.188Z,52.10
2022-11-16T13:06:18.908Z,31.35
2022-11-16T13:09:06.245Z,37.72
2022-11-16T13:11:40.889Z,23.95
2022-11-16T13:14:16.676Z,22.37
2022-11-16T13:16:45.793Z,20.73
2022-11-16T13:19:15.379Z,58.42
2022-11-16T13:22:14.127Z,41.35
2022-11-16T13:25:21.732Z,30.25
2022-11-16T13:28:04.462Z,22.90
2022-11-16T13:30:56.792Z,22.67
2022-11-16T13:33:31.302Z,20.25
2022-11-16T13:35:59.051Z,21.25
2022-11-16T13:38:54.993Z,25.50
2022-11-16T13:41:32.445Z,21.63
2022-11-16T13:44:00.601Z,19.90
2022-11-16T13:46:55.925Z,19.63
2022-11-16T13:49:28.738Z,19.30
2022-11-16T13:52:07.039Z,18.38
2022-11-16T13:54:53.061Z,21.43
2022-11-16T13:57:34.030Z,19.48
2022-11-16T14:00:01.365Z,18.10
2022-11-16T14:02:36.600Z,18.08
2022-11-16T14:05:38.046Z,16.42
2022-11-16T14:08:45.447Z,17.47
2022-11-16T14:11:31.444Z,20.77
2022-11-16T14:14:05.981Z,20.83
2022-11-16T14:16:45.895Z,19.88
2022-11-16T14:19:47.879Z,20.17
2022-11-16T14:22:34.127Z,17.30
2022-11-16T14:25:39.321Z,19.77
2022-11-16T14:28:34.627Z,20.48
2022-11-16T14:31:25.145Z,24.23
2022-11-16T14:33:55.551Z,24.25
2022-11-16T14:36:40.481Z,25.50
2022-11-16T14:39:26.991Z,20.27
2022-11-16T14:41:57.201Z,25.20
2022-11-16T14:44:28.106Z,25.10
2022-11-16T14:46:56.852Z,27.48
2022-11-16T14:49:26.355Z,21.97
2022-11-16T14:52:01.577Z,21.17
2022-11-16T14:54:49.202Z,26.25
2022-11-16T14:57:24.365Z,24.88
2022-11-16T15:00:29.838Z,21.33
2022-11-16T15:03:02.385Z,22.73
2022-11-16T15:05:34.877Z,25.15
2022-11-16T15:08:08.310Z,25.70
2022-11-16T15:10:36.560Z,29.73
2022-11-16T15:13:04.444Z,28.55
2022-11-16T15:15:32.161Z,31.47
2022-11-16T15:17:59.478Z,29.73
2022-11-16T15:20:35.447Z,26.10
2022-11-16T15:23:05.241Z,26.35
2022-11-16T15:25:44.434Z,27.88
2022-11-16T15:28:23.804Z,27.37
2022-11-16T15:30:53.912Z,26.90
2022-11-16T15:33:28.815Z,25.92
2022-11-16T15:35:56.850Z,29.70
2022-11-16T15:38:33.502Z,25.73
2022-11-16T15:41:06.440Z,28.23
2022-11-16T15:43:49.747Z,28.88
2022-11-16T15:46:25.252Z,27.02
2022-11-16T15:48:53.858Z,29.13
2022-11-16T15:51:27.761Z,25.58
2022-11-16T15:53:56.027Z,30.33
2022-11-16T15:56:26.239Z,24.95
2022-11-16T15:58:55.381Z,26.58
2022-11-16T16:01:23.629Z,37.63
2022-11-16T16:03:55.137Z,32.50
2022-11-16T16:06:51.811Z,27.13
2022-11-16T16:09:35.787Z,30.63
2022-11-16T16:12:22.757Z,29.73
2022-11-16T16:14:52.546Z,26.20
2022-11-16T16:17:24.097Z,27.15
2022-11-16T16:19:58.741Z,28.93
2022-11-16T16:22:38.099Z,48.70
2022-11-16T16:25:06.913Z,55.08
2022-11-16T16:27:41.040Z,44.53
2022-11-16T16:30:08.959Z,35.90
2022-11-16T16:32:38.029Z,32.33
2022-11-16T16:35:08.143Z,34.20
2022-11-16T16:37:40.221Z,32.65
2022-11-16T16:40:12.532Z,31.67
2022-11-16T16:43:06.419Z,32.90
2022-11-16T16:45:39.382Z,28.43
2022-11-16T16:48:07.213Z,28.45
2022-11-16T16:50:34.776Z,29.83
2022-11-16T16:53:02.259Z,23.98
2022-11-16T16:55:34.306Z,23.15
2022-11-16T16:58:04.532Z,22.97
2022-11-16T17:00:32.211Z,22.13
2022-11-16T17:02:59.626Z,23.10
2022-11-16T17:05:27.021Z,24.15
2022-11-16T17:07:57.319Z,21.70
2022-11-16T17:10:25.566Z,19.70
2022-11-16T17:12:57.936Z,23.48
2022-11-16T17:15:26.004Z,20.70
2022-11-16T17:17:54.757Z,26.65
2022-11-16T17:20:22.188Z,28.02
2022-11-16T17:22:49.601Z,26.73
2022-11-16T17:25:17.027Z,27.95
2022-11-16T17:27:44.631Z,26.52
2022-11-16T17:30:12.720Z,29.15
2022-11-16T17:32:40.031Z,20.58
2022-11-16T17:35:07.776Z,16.93
2022-11-16T17:37:35.094Z,22.27
2022-11-16T17:40:02.434Z,22.05
2022-11-16T17:42:29.733Z,22.98
2022-11-16T17:44:57.076Z,19.65
2022-11-16T17:47:24.741Z,19.90
2022-11-16T17:49:52.224Z,17.95
2022-11-16T17:52:19.971Z,17.60
2022-11-16T17:54:47.301Z,19.63
2022-11-16T17:57:14.740Z,18.77
2022-11-16T17:59:42.269Z,19.03
2022-11-16T18:02:12.898Z,16.95
2022-11-16T18:04:40.274Z,17.45
2022-11-16T18:07:07.697Z,18.42
2022-11-16T18:09:35.177Z,17.30
2022-11-16T18:12:02.475Z,16.80
2022-11-16T18:14:29.725Z,20.08
2022-11-16T18:16:57.409Z,18.15
2022-11-16T18:19:24.756Z,21.20
2022-11-16T18:21:52.436Z,20.40
2022-11-16T18:24:19.733Z,20.77
2022-11-16T18:26:47.194Z,23.25
2022-11-16T18:29:16.251Z,23.95
2022-11-16T18:31:43.795Z,20.38
2022-11-16T18:34:15.251Z,22.73
2022-11-16T18:36:42.536Z,15.80
2022-11-16T18:39:09.922Z,16.15
2022-11-16T18:41:38.497Z,17.45
2022-11-16T18:44:06.797Z,20.40
2022-11-16T18:46:34.178Z,24.02
2022-11-16T18:49:01.878Z,22.20
2022-11-16T18:51:29.780Z,23.63
2022-11-16T18:53:57.379Z,19.98
2022-11-16T18:56:27.508Z,23.80
2022-11-16T18:58:54.889Z,24.15
2022-11-16T19:01:25.086Z,26.57
2022-11-16T19:03:54.306Z,27.67
2022-11-16T19:06:22.749Z,24.73
2022-11-16T19:09:04.176Z,21.63
2022-11-16T19:11:31.558Z,25.63
2022-11-16T19:14:05.002Z,24.90
2022-11-16T19:16:32.621Z,22.52
2022-11-16T19:19:01.691Z,24.65
2022-11-16T19:21:29.828Z,23.95
2022-11-16T19:23:58.097Z,24.42
2022-11-16T19:26:27.283Z,24.00
2022-11-16T19:28:55.184Z,24.13
2022-11-16T19:31:29.028Z,23.80
2022-11-16T19:33:57.226Z,29.13
2022-11-16T19:36:26.224Z,29.60
2022-11-16T19:38:53.934Z,30.23
2022-11-16T19:41:22.831Z,35.33
2022-11-16T19:43:52.918Z,49.25
2022-11-16T19:46:24.539Z,29.25
2022-11-16T19:48:52.241Z,28.63
2022-11-16T19:51:29.561Z,25.37
2022-11-16T19:53:58.843Z,28.70
2022-11-16T19:56:26.367Z,33.42
2022-11-16T19:58:54.008Z,31.23
2022-11-16T20:01:25.620Z,31.50
2022-11-16T20:03:53.243Z,32.60
2022-11-16T20:06:23.723Z,29.98
2022-11-16T20:08:53.182Z,27.67
2022-11-16T20:11:23.620Z,31.50
2022-11-16T20:13:53.117Z,29.65
2022-11-16T20:16:23.110Z,31.77
2022-11-16T20:18:51.517Z,32.17
2022-11-16T20:21:21.771Z,32.97
2022-11-16T20:23:50.120Z,32.42
2022-11-16T20:26:19.314Z,31.85
2022-11-16T20:28:46.962Z,33.87
2022-11-16T20:31:16.968Z,35.53
2022-11-16T20:33:51.489Z,37.72
2022-11-16T20:36:20.010Z,41.70
2022-11-16T20:38:47.349Z,37.72
2022-11-16T20:41:25.128Z,35.27
2022-11-16T20:43:54.394Z,41.70
2022-11-16T20:46:23.966Z,40.90
2022-11-16T20:48:51.307Z,36.75
2022-11-16T20:51:20.432Z,39.20
2022-11-16T20:53:48.810Z,39.40
2022-11-16T20:56:19.439Z,39.25
2022-11-16T20:58:48.044Z,36.88
2022-11-16T21:01:21.316Z,41.92
2022-11-16T21:03:48.798Z,39.72
2022-11-16T21:06:16.139Z,42.47
2022-11-16T21:08:43.462Z,36.45
2022-11-16T21:11:20.047Z,40.13
2022-11-16T21:14:06.650Z,37.60
2022-11-16T21:16:34.735Z,41.95
2022-11-16T21:19:03.005Z,34.33
2022-11-16T21:21:30.771Z,33.30
2022-11-16T21:23:58.038Z,42.58
2022-11-16T21:26:28.514Z,41.15
2022-11-16T21:28:56.851Z,33.80
2022-11-16T21:31:27.349Z,38.90
2022-11-16T21:33:55.045Z,39.15
2022-11-16T21:36:24.895Z,34.15
2022-11-16T21:38:52.782Z,35.70
2022-11-16T21:41:21.819Z,39.00
2022-11-16T21:43:49.779Z,33.67
2022-11-16T21:46:22.279Z,34.40
2022-11-16T21:48:52.901Z,32.08
2022-11-16T21:51:25.800Z,30.60
2022-11-16T21:53:53.772Z,34.33
2022-11-16T21:56:24.403Z,32.27
2022-11-16T21:58:55.720Z,32.08
2022-11-16T22:01:24.355Z,38.75
2022-11-16T22:04:12.365Z,31.17
2022-11-16T22:07:02.824Z,23.98
2022-11-16T22:09:30.289Z,24.47
2022-11-16T22:12:02.407Z,24.50
2022-11-16T22:14:32.979Z,22.52
2022-11-16T22:17:00.315Z,21.10
2022-11-16T22:19:27.746Z,22.73
2022-11-16T22:21:55.116Z,22.97
2022-11-16T22:24:22.481Z,25.60
2022-11-16T22:26:49.977Z,28.70
2022-11-16T22:29:17.873Z,30.80
2022-11-16T22:31:45.285Z,27.98
2022-11-16T22:34:12.731Z,30.90
2022-11-16T22:36:40.210Z,33.78
2022-11-16T22:39:07.668Z,29.20
2022-11-16T22:41:35.102Z,34.70
2022-11-16T22:44:02.515Z,35.78
2022-11-16T22:46:29.936Z,32.47
2022-11-16T22:48:57.607Z,28.70
2022-11-16T22:51:27.039Z,30.42
2022-11-16T22:54:08.345Z,29.38
2022-11-16T22:56:37.616Z,30.85
2022-11-16T22:59:06.715Z,31.77
2022-11-16T23:01:34.445Z,32.75
2022-11-16T23:04:02.089Z,32.70
2022-11-16T23:06:29.386Z,27.45
2022-11-16T23:08:56.695Z,31.50
2022-11-16T23:11:44.512Z,28.20
2022-11-16T23:14:32.950Z,29.27
2022-11-16T23:17:01.023Z,33.58
2022-11-16T23:19:47.372Z,31.67
2022-11-16T23:22:36.062Z,31.52
2022-11-16T23:25:22.842Z,28.30
2022-11-16T23:27:51.059Z,26.25
2022-11-16T23:30:18.869Z,28.30
2022-11-16T23:32:46.581Z,27.73
2022-11-16T23:35:14.161Z,25.02
2022-11-16T23:38:01.464Z,30.30
2022-11-16T23:40:35.857Z,23.88
2022-11-16T23:43:22.403Z,20.80
2022-11-16T23:45:50.916Z,19.20
2022-11-16T23:48:19.075Z,16.88
2022-11-16T23:50:47.585Z,15.57
2022-11-16T23:53:14.903Z,13.70
2022-11-16T23:55:42.411Z,14.68
2022-11-16T23:58:14.662Z,18.52
